Lebanon, VA (24266)

10:50 PM EST on March 01, 2015 (GMT -0500)
My Side Of The Mountain | Change Station
CLOSE
Current Station
Personal Weather Station
Location: Lebanon, VA
Elevation: 2480 ft
Nearby Weather Stations

Elev 2480 ft 36.85 °N, 82.12 °W | Updated 5 seconds ago

Fog
Fog
43.0 °F
Feels Like 43 °F
N
0.0
Wind Variable Wind from SSW
Gusts 5.0 mph

Today
High -- | Low -- °F
--% Chance of Precip.
Yesterday
High -- | Low -- °F
Precip. -- in
6:59 AM 6:22 PM
Waxing Gibbous, 89% visible
Pressure 30.30 in
Visibility 0.2 miles
Clouds Overcast 300 ft
Windchill 43 °F
Dew Point 43 °F
Humidity 100%
Rainfall 0.00 in
Snow Depth Not available.
UV 0 out of 12
Pollen 1.60 out of 12
Air Quality Not available.
Flu Activity Not available.
METAR KVJI 020335Z AUTO 22003KT 1/4SM FG OVC003 06/06 A3030 RMK AO2 T00560055

More Conditions Fewer Conditions

Pressure 30.30 in
Visibility 0.2 miles
Clouds Overcast 300 ft
Windchill 43 °F
Dew Point 43 °F
Humidity 100%
Rainfall 0.00 in
Snow Depth Not available.
UV 0 out of 12
Pollen 1.60 out of 12
Air Quality Not available.
Flu Activity Not available.
METAR KVJI 020335Z AUTO 22003KT 1/4SM FG OVC003 06/06 A3030 RMK AO2 T00560055

More Conditions Fewer Conditions

10-Day Weather Forecast

Almanac

Astronomy

Mar. 01, 2015 Rise Set
Actual Time
Civil Twilight
Nautical Twilight
Astronomical Twilight
Moon
Length of Visible Light
Length of Day
Tomorrow will be .
, % of the Moon is Illuminated

Today's Extremes

State Highs State Lows

Community

WunderPhotos

Upload Photos

1,801,719 photos uploaded!

WunderBlogs® & News

Nearby

Air Quality

  Air Quality AQ Index Pollutant
Not available.

Snow Depth

Station Depth Elevation

Earthquake Activity

City Distance Mag. Time & Date
Minimum magnitude displayed is 2.5.

Coastal Water Temperatures

Place Temperature

Nearby Weather Stations